Terminal Aerodrome Forecast
Issued by NWS

Home | Current Version | Previous Version | Text Only | Print | Product List | Glossary On
Versions: 1 2 3 4 5 6 7 8 9 10 11 12 13 14 15
000
FTUS43 KMQT 252321
TAFIWD
TAF
KIWD 252321Z 2600/2624 27014G21KT P6SM SCT040
     FM260200 27008KT P6SM SCT045
     FM260800 28006KT P6SM BKN030
     FM261500 32007KT P6SM SCT035
      AMD LTD TO CLD VIS AND WIND=

USA.gov is the U.S. government's official web portal to all federal, state and local government web resources and services.